Home > Products > Valid Products > MTR

000
SAUS44 KEWX 080552
MTRATT
METAR KATT 080551Z AUTO 17007G18KT 120V210 10SM OVC017 26/23 A2999
RMK AO2 SLP140 T02610233 10294 20261 403280256 50003 $





000
SAUS44 KEWX 080452
MTRATT
METAR KATT 080451Z AUTO 17005G15KT 10SM BKN019 27/23 A3000 RMK AO2
SLP145 T02670228 $





000
SAUS44 KEWX 080352
MTRATT
METAR KATT 080351Z AUTO 17007KT 130V200 10SM CLR 27/22 A2999 RMK AO2
SLP142 T02670222 $





000
SAUS44 KEWX 080252
MTRATT
METAR KATT 080251Z AUTO 16009G15KT 10SM CLR 28/22 A2998 RMK AO2
SLP137 T02780217 53014 $





000
SAUS44 KEWX 080152
MTRATT
METAR KATT 080151Z AUTO 17008G15KT 10SM CLR 28/21 A2996 RMK AO2
SLP132 T02830211 $





000
SAUS44 KEWX 080052
MTRATT
METAR KATT 080051Z AUTO 16007G15KT 10SM CLR 29/22 A2994 RMK AO2
SLP126 T02890217 $





000
SAUS44 KEWX 080052
MTRATT
METAR KATT 080051Z AUTO 16007G15KT 10SM CLR 29/22 A2994 RMK AO2
SLP126 T02890217 $





000
SAUS44 KEWX 072352
MTRATT
METAR KATT 072351Z AUTO 15007KT 130V190 10SM FEW041 29/22 A2994 RMK
AO2 SLP123 60000 T02940222 10328 20294 56008 $





000
SAUS44 KEWX 072252
MTRATT
METAR KATT 072251Z AUTO 17007G20KT 140V200 10SM CLR 31/22 A2994 RMK
AO2 RAB2159E09 SLP125 P0000 T03060222 $





000
SAUS44 KEWX 072252
MTRATT
METAR KATT 072251Z AUTO 17007G20KT 140V200 10SM CLR 31/22 A2994 RMK
AO2 RAB2159E09 SLP125 P0000 T03060222 $





000
SAUS44 KEWX 072152
MTRATT
METAR KATT 072151Z AUTO VRB06KT 10SM SCT040 SCT049 BKN085 31/24
A2994 RMK AO2 SLP125 T03060239 $





000
SAUS44 KEWX 072052
MTRATT
METAR KATT 072051Z AUTO 17009G17KT 10SM SCT050 BKN060 31/22 A2996
RMK AO2 SLP131 T03110217 56015 $





000
SAUS44 KEWX 071952
MTRATT
METAR KATT 071951Z AUTO VRB05G19KT 10SM SCT043 BKN050 33/23 A2997
RMK AO2 SLP132 T03280228 $





000
SAUS44 KEWX 071852
MTRATT
METAR KATT 071851Z AUTO 18009G19KT 10SM SCT041 BKN060 31/22 A2998
RMK AO2 SLP139 T03110217 $





000
SAUS44 KEWX 071753
MTRATT
METAR KATT 071751Z AUTO 18009G18KT 140V210 10SM SCT038 SCT045 32/23
A3000 RMK AO2 SLP145 T03170228 10317 20256 58003 $





000
SAUS44 KEWX 071753
MTRATT
METAR KATT 071751Z AUTO 18009G18KT 140V210 10SM SCT038 SCT045 32/23
A3000 RMK AO2 SLP145 T03170228 10317 20256 58003 $





000
SAUS44 KEWX 071652
MTRATT
METAR KATT 071651Z AUTO 19007G17KT 150V300 10SM SCT034 BKN045 BKN060
29/23 A3002 RMK AO2 SLP151 T02940228 $





000
SAUS44 KEWX 071552
MTRATT
METAR KATT 071551Z AUTO VRB06G18KT 10SM SCT026 29/23 A3002 RMK AO2
SLP151 T02940233 $





000
SAUS44 KEWX 071453
MTRATT
METAR KATT 071451Z AUTO 19011G18KT 10SM FEW021 SCT028 BKN038 28/23
A3001 RMK AO2 SLP149 T02780228 51003 $





000
SAUS44 KEWX 071353
MTRATT
METAR KATT 071351Z AUTO VRB06G15KT 9SM BKN015 OVC022 27/23 A3001 RMK
AO2 SLP148 T02720233 $





000
SAUS44 KEWX 071353
MTRATT
METAR KATT 071351Z AUTO VRB06G15KT 9SM BKN015 OVC022 27/23 A3001 RMK
AO2 SLP148 T02720233 $





000
SAUS44 KEWX 071255
MTRATT
METAR KATT 071251Z AUTO 17007KT 8SM OVC016 26/23 A3000 RMK AO2
SLP147 T02610233 $





000
SAUS44 KEWX 071255
MTRATT
METAR KATT 071251Z AUTO 17007KT 8SM OVC016 26/23 A3000 RMK AO2
SLP147 T02610233 $





000
SAUS44 KEWX 071152
MTRATT
METAR KATT 071151Z AUTO VRB04KT 9SM BKN014 OVC021 26/23 A3000 RMK
AO2 SLP146 T02560233 10261 20256 53006 $





000
SAUS44 KEWX 071052
MTRATT
METAR KATT 071051Z AUTO VRB04KT 10SM BKN017 OVC021 26/23 A2999 RMK
AO2 SLP141 T02610233 $





000
SAUS44 KEWX 070952
MTRATT
METAR KATT 070951Z AUTO 18006KT 10SM BKN015 OVC022 26/23 A2998 RMK
AO2 SLP136 T02610233 $





000
SAUS44 KEWX 070852
MTRATT
METAR KATT 070851Z AUTO VRB05KT 10SM BKN015 BKN021 OVC034 26/23
A2998 RMK AO2 SLP137 T02610233 56011 $





000
SAUS44 KEWX 070828
MTRATT
SPECI KATT 070826Z AUTO 18005KT 9SM SCT015 BKN023 OVC040 26/23 A2999
RMK AO2 T02610233 $





000
SAUS44 KEWX 070752
MTRATT
METAR KATT 070751Z AUTO 18006G14KT 9SM BKN013 OVC019 26/23 A2999 RMK
AO2 SLP141 T02610233 $





000
SAUS44 KEWX 070716
MTRATT
SPECI KATT 070715Z AUTO 17008G15KT 9SM BKN013 OVC020 26/23 A3000 RMK
AO2 T02610233 $





000
SAUS44 KEWX 070652
MTRATT
METAR KATT 070651Z AUTO 16008G16KT 10SM BKN015 OVC021 26/23 A3000
RMK AO2 SLP145 T02610233 $





000
SAUS44 KEWX 070652
MTRATT
METAR KATT 070651Z AUTO 16008G16KT 10SM BKN015 OVC021 26/23 A3000
RMK AO2 SLP145 T02610233 $





000
SAUS44 KEWX 070552
MTRATT
METAR KATT 070551Z AUTO 15007KT 10SM OVC015 26/23 A3001 RMK AO2
SLP149 T02610228 10300 20261 403280250 50014 $





000
SAUS44 KEWX 070552
MTRATT
METAR KATT 070551Z AUTO 15007KT 10SM OVC015 26/23 A3001 RMK AO2
SLP149 T02610228 10300 20261 403280250 50014 $





000
SAUS44 KEWX 070516
MTRATT
SPECI KATT 070515Z AUTO VRB05KT 10SM BKN016 OVC030 26/23 A3002 RMK
AO2 T02610228 $





000
SAUS44 KEWX 070516
MTRATT
SPECI KATT 070515Z AUTO VRB05KT 10SM BKN016 OVC030 26/23 A3002 RMK
AO2 T02610228 $





000
SAUS44 KEWX 070452
MTRATT
METAR KATT 070451Z AUTO 17005KT 10SM FEW016 SCT030 26/23 A3002 RMK
AO2 SLP151 T02610228 $





000
SAUS44 KEWX 070452
MTRATT
METAR KATT 070451Z AUTO 17005KT 10SM FEW016 SCT030 26/23 A3002 RMK
AO2 SLP151 T02610228 $





000
SAUS44 KEWX 070352
MTRATT
METAR KATT 070351Z AUTO 17006KT 10SM CLR 27/22 A2999 RMK AO2 SLP142
T02670222 $





000
SAUS44 KEWX 070252
MTRATT
METAR KATT 070251Z AUTO 18005KT 10SM CLR 27/22 A2997 RMK AO2 SLP136
T02720217 53009 $





000
SAUS44 KEWX 070152
MTRATT
METAR KATT 070151Z AUTO VRB06G16KT 10SM CLR 28/21 A2994 RMK AO2
SLP125 T02830211 $





000
SAUS44 KEWX 070052
MTRATT
METAR KATT 070051Z AUTO 17009G19KT 140V200 10SM CLR 29/21 A2993 RMK
AO2 SLP121 T02940206 $





000
SAUS44 KEWX 062353
MTRATT
METAR KATT 062351Z AUTO 16010G25KT 120V190 10SM FEW060 30/21 A2995
RMK AO2 SLP127 T03000211 10328 20300 56016 $





000
SAUS44 KEWX 062252
MTRATT
METAR KATT 062251Z AUTO 16009G19KT 10SM FEW047 SCT060 31/21 A2996
RMK AO2 SLP131 T03110211 $





000
SAUS44 KEWX 062152
MTRATT
METAR KATT 062151Z AUTO VRB06G19KT 10SM SCT048 SCT060 32/22 A2997
RMK AO2 SLP134 T03220217 $





000
SAUS44 KEWX 062152
MTRATT
METAR KATT 062151Z AUTO VRB06G19KT 10SM SCT048 SCT060 32/22 A2997
RMK AO2 SLP134 T03220217 $





000
SAUS44 KEWX 062052
MTRATT
METAR KATT 062051Z AUTO 16009G19KT 10SM FEW046 32/22 A3000 RMK AO2
SLP143 T03220217 56021 $





000
SAUS44 KEWX 061952
MTRATT
METAR KATT 061951Z AUTO 19008G19KT 150V220 10SM FEW048 SCT065 32/22
A3001 RMK AO2 SLP148 T03170217 $





000
SAUS44 KEWX 061952
MTRATT
METAR KATT 061951Z AUTO 19008G19KT 150V220 10SM FEW048 SCT065 32/22
A3001 RMK AO2 SLP148 T03170217 $





000
SAUS44 KEWX 061852
MTRATT
METAR KATT 061851Z AUTO 18010G22KT 10SM FEW046 32/22 A3003 RMK AO2
SLP154 T03170217 $





000
SAUS44 KEWX 061852
MTRATT
METAR KATT 061851Z AUTO 18010G22KT 10SM FEW046 32/22 A3003 RMK AO2
SLP154 T03170217 $





000
SAUS44 KEWX 061752
MTRATT
METAR KATT 061751Z AUTO 19009G19KT 140V230 10SM SCT041 31/22 A3006
RMK AO2 SLP164 T03110222 10311 20250 58005 $





000
SAUS44 KEWX 061653
MTRATT
METAR KATT 061651Z AUTO 16013G22KT 10SM 31/22 A3007 RMK AO2 SLP167
T03060222 $





000
SAUS44 KEWX 061552
MTRATT
METAR KATT 061551Z AUTO 18009G20KT 150V240 10SM 29/22 A3007 RMK AO2
SLP169 T02890217 $





000
SAUS44 KEWX 061552
MTRATT
METAR KATT 061551Z AUTO 18009G20KT 150V240 10SM 29/22 A3007 RMK AO2
SLP169 T02890217 $





000
SAUS44 KEWX 061533
MTRATT
SPECI KATT 061532Z AUTO 17010G18KT 130V210 10SM 29/22 A3007 RMK AO2
T02890222 PWINO $





000
SAUS44 KEWX 061513
MTRATT
SPECI KATT 061512Z AUTO 19007KT 140V210 9SM BKN026 BKN030 BKN038
28/23 A3007 RMK AO2 T02830228 $





000
SAUS44 KEWX 061452
MTRATT
METAR KATT 061451Z AUTO VRB06G16KT 9SM SCT026 BKN034 27/22 A3007 RMK
AO2 SLP170 T02720222 51010 $





000
SAUS44 KEWX 061452
MTRATT
METAR KATT 061451Z AUTO VRB06G16KT 9SM SCT026 BKN034 27/22 A3007 RMK
AO2 SLP170 T02720222 51010 $





000
SAUS44 KEWX 061426
MTRATT
SPECI KATT 061424Z AUTO 20008KT 8SM 26/22 A3007 RMK AO2 T02610217 $





000
SAUS44 KEWX 061353
MTRATT
METAR KATT 061351Z AUTO VRB06KT 8SM SCT014 BKN020 26/23 A3006 RMK
AO2 SLP167 T02610228 $





000
SAUS44 KEWX 061353
MTRATT
METAR KATT 061351Z AUTO VRB06KT 8SM SCT014 BKN020 26/23 A3006 RMK
AO2 SLP167 T02610228 $





000
SAUS44 KEWX 061301
MTRATT
SPECI KATT 061300Z AUTO 7SM BKN016 BKN020 OVC025 25/23 A3005 RMK AO2
T02500228 $





000
SAUS44 KEWX 061301
MTRATT
SPECI KATT 061300Z AUTO 7SM BKN016 BKN020 OVC025 25/23 A3005 RMK AO2
T02500228 $





000
SAUS44 KEWX 061252
MTRATT
METAR KATT 061251Z AUTO VRB06KT 7SM BKN014 OVC023 25/23 A3004 RMK
AO2 SLP160 T02500228 $





000
SAUS44 KEWX 061252
MTRATT
METAR KATT 061251Z AUTO VRB06KT 7SM BKN014 OVC023 25/23 A3004 RMK
AO2 SLP160 T02500228 $





000
SAUS44 KEWX 061230
MTRATT
SPECI KATT 061228Z AUTO VRB06KT 8SM BKN014 OVC021 25/23 A3004 RMK
AO2 T02500228 $





000
SAUS44 KEWX 061152
MTRATT
METAR KATT 061151Z AUTO VRB05KT 9SM BKN018 OVC025 25/22 A3004 RMK
AO2 SLP159 T02500222 10267 20250 53008





000
SAUS44 KEWX 061152
MTRATT
METAR KATT 061151Z AUTO VRB05KT 9SM BKN018 OVC025 25/22 A3004 RMK
AO2 SLP159 T02500222 10267 20250 53008





000
SAUS44 KEWX 061053
MTRATT
METAR KATT 061051Z AUTO 16008KT 9SM SCT015 BKN024 OVC029 25/23 A3003
RMK AO2 SLP154 T02500228





000
SAUS44 KEWX 061053
MTRATT
METAR KATT 061051Z AUTO 16008KT 9SM SCT015 BKN024 OVC029 25/23 A3003
RMK AO2 SLP154 T02500228





000
SAUS44 KEWX 060952
MTRATT
METAR KATT 060951Z AUTO 18006KT 9SM BKN017 BKN024 OVC031 26/23 A3001
RMK AO2 SLP149 T02560228





000
SAUS44 KEWX 060852
MTRATT
METAR KATT 060851Z AUTO 18005KT 9SM SCT017 BKN023 OVC038 26/23 A3002
RMK AO2 SLP150 T02560228 58004





000
SAUS44 KEWX 060752
MTRATT
METAR KATT 060751Z AUTO VRB05KT 10SM BKN018 BKN028 OVC034 26/23
A3002 RMK AO2 SLP152 T02610233





000
SAUS44 KEWX 060652
MTRATT
METAR KATT 060651Z AUTO VRB06KT 10SM BKN019 OVC026 26/23 A3002 RMK
AO2 SLP151 T02610228





000
SAUS44 KEWX 060552
MTRATT
METAR KATT 060551Z AUTO 17008G16KT 10SM BKN020 OVC026 27/23 A3003
RMK AO2 SLP154 T02670228 10306 20267 403280244 50001





000
SAUS44 KEWX 060452
MTRATT
METAR KATT 060451Z AUTO 16009G17KT 10SM FEW022 OVC029 27/23 A3003
RMK AO2 SLP155 T02670228





000
SAUS44 KEWX 060450
MTRATT
SPECI KATT 060449Z AUTO 16007KT 10SM FEW022 OVC029 27/23 A3003 RMK
AO2





000
SAUS44 KEWX 060450
MTRATT
SPECI KATT 060449Z AUTO 16007KT 10SM FEW022 OVC029 27/23 A3003 RMK
AO2





000
SAUS44 KEWX 060352
MTRATT
METAR KATT 060351Z AUTO 16006KT 10SM OVC044 27/23 A3003 RMK AO2
SLP154 T02720228





000
SAUS44 KEWX 060252
MTRATT
METAR KATT 060251Z AUTO 15006KT 10SM BKN044 28/22 A3001 RMK AO2
SLP147 T02780222 53018 $





000
SAUS44 KEWX 060152
MTRATT
METAR KATT 060151Z AUTO 17007KT 10SM SCT050 29/22 A2998 RMK AO2
SLP139 T02890217 $





000
SAUS44 KEWX 060052
MTRATT
METAR KATT 060051Z AUTO 16007G14KT 120V200 10SM CLR 29/22 A2996 RMK
AO2 SLP130 T02940217 $





000
SAUS44 KEWX 060052
MTRATT
METAR KATT 060051Z AUTO 16007G14KT 120V200 10SM CLR 29/22 A2996 RMK
AO2 SLP130 T02940217 $





000
SAUS44 KEWX 052352
MTRATT
METAR KATT 052351Z AUTO 16006G18KT 10SM FEW045 BKN060 31/22 A2995
RMK AO2 SLP129 T03060217 10328 20300 56013 $





000
SAUS44 KEWX 052352
MTRATT
METAR KATT 052351Z AUTO 16006G18KT 10SM FEW045 BKN060 31/22 A2995
RMK AO2 SLP129 T03060217 10328 20300 56013 $





000
SAUS44 KEWX 052252
MTRATT
METAR KATT 052251Z AUTO 15011G16KT 10SM FEW046 32/22 A2996 RMK AO2
SLP130 T03170217 $





000
SAUS44 KEWX 052152
MTRATT
METAR KATT 052151Z AUTO 18007G17KT 10SM FEW046 SCT065 32/22 A2997
RMK AO2 SLP135 T03170222 $





000
SAUS44 KEWX 052052
MTRATT
METAR KATT 052051Z AUTO 15013G20KT 10SM SCT043 BKN055 32/22 A2999
RMK AO2 SLP141 T03170222 56021 $





000
SAUS44 KEWX 051952
MTRATT
METAR KATT 051951Z AUTO 18007G20KT 150V210 10SM FEW042 SCT060 SCT080
33/23 A3001 RMK AO2 SLP147 T03280228 $





000
SAUS44 KEWX 051852
MTRATT
METAR KATT 051851Z AUTO 16007G14KT 130V220 10SM FEW043 32/23 A3003
RMK AO2 SLP153 T03220233 $





000
SAUS44 KEWX 051752
MTRATT
METAR KATT 051751Z AUTO 19008G14KT 10SM BKN035 BKN045 31/23 A3005
RMK AO2 SLP162 T03110228 10317 20244 58009 $





000
SAUS44 KEWX 051752
MTRATT
METAR KATT 051751Z AUTO 19008G14KT 10SM BKN035 BKN045 31/23 A3005
RMK AO2 SLP162 T03110228 10317 20244 58009 $





000
SAUS44 KEWX 051653
MTRATT
METAR KATT 051651Z AUTO VRB06KT 10SM SCT029 BKN037 BKN048 29/23
A3006 RMK AO2 SLP166 T02940228 $





000
SAUS44 KEWX 051653
MTRATT
METAR KATT 051651Z AUTO VRB06KT 10SM SCT029 BKN037 BKN048 29/23
A3006 RMK AO2 SLP166 T02940228 $





000
SAUS44 KEWX 051552
MTRATT
METAR KATT 051551Z AUTO 18006KT 9SM FEW022 FEW030 BKN045 27/23 A3007
RMK AO2 SLP170 T02720228 $





000
SAUS44 KEWX 051541
MTRATT
SPECI KATT 051540Z AUTO 18009G16KT 150V230 9SM FEW019 SCT025 BKN030
28/23 A3007 RMK AO2 T02780228 $





000
SAUS44 KEWX 051506
MTRATT
SPECI KATT 051504Z AUTO 19008KT 8SM SCT020 BKN029 BKN035 27/23 A3008
RMK AO2 T02670228 $





000
SAUS44 KEWX 051506
MTRATT
SPECI KATT 051504Z AUTO 19008KT 8SM SCT020 BKN029 BKN035 27/23 A3008
RMK AO2 T02670228 $





000
SAUS44 KEWX 051452
MTRATT
METAR KATT 051451Z AUTO 18006KT 8SM 27/23 A3008 RMK AO2 SLP173
T02670228 50008 $





000
SAUS44 KEWX 051416
MTRATT
SPECI KATT 051415Z AUTO VRB06KT 9SM 27/23 A3008 RMK AO2 T02670228
PWINO $





000
SAUS44 KEWX 051408
MTRATT
SPECI KATT 051407Z AUTO VRB05KT 10SM BKN014 OVC029 26/23 A3008 RMK
AO2 T02610228 $





000
SAUS44 KEWX 051408
MTRATT
SPECI KATT 051407Z AUTO VRB05KT 10SM BKN014 OVC029 26/23 A3008 RMK
AO2 T02610228 $





000
SAUS44 KEWX 051353
MTRATT
METAR KATT 051351Z AUTO VRB04KT 10SM 26/23 A3008 RMK AO2 SLP173
T02560228 $





000
SAUS44 KEWX 051338
MTRATT
SPECI KATT 051337Z AUTO VRB03KT 10SM 26/23 A3008 RMK AO2 T02560228 $





000
SAUS44 KEWX 051338
MTRATT
SPECI KATT 051337Z AUTO VRB03KT 10SM 26/23 A3008 RMK AO2 T02560228 $





000
SAUS44 KEWX 051252
MTRATT
METAR KATT 051251Z AUTO VRB04KT 10SM BKN020 OVC026 25/22 A3007 RMK
AO2 SLP171 T02500222 $





000
SAUS44 KEWX 051152
MTRATT
METAR KATT 051151Z AUTO 18003KT 10SM OVC023 24/22 A3006 RMK AO2
SLP164 T02440222 10261 20244 51013 $





000
SAUS44 KEWX 051103
MTRATT
SPECI KATT 051101Z AUTO 16003KT 10SM BKN022 24/23 A3005 RMK AO2
T02440228 $





000
SAUS44 KEWX 051103
MTRATT
SPECI KATT 051101Z AUTO 16003KT 10SM BKN022 24/23 A3005 RMK AO2
T02440228 $





000
SAUS44 KEWX 051053
MTRATT
METAR KATT 051051Z AUTO 18003KT 10SM SCT022 SCT030 24/23 A3005 RMK
AO2 SLP161 T02440228 $





000
SAUS44 KEWX 050952
MTRATT
METAR KATT 050951Z AUTO VRB04KT 10SM FEW012 24/23 A3003 RMK AO2
SLP154 T02440228 $





000
SAUS44 KEWX 050852
MTRATT
METAR KATT 050851Z AUTO VRB04KT 10SM FEW011 25/23 A3002 RMK AO2
SLP150 T02500233 55000 $





000
SAUS44 KEWX 050844
MTRATT
SPECI KATT 050843Z AUTO 16005KT 10SM SCT011 25/23 A3001 RMK AO2
T02500233 $





000
SAUS44 KEWX 050752
MTRATT
METAR KATT 050751Z AUTO 17005KT 10SM BKN012 26/23 A3001 RMK AO2
SLP148 T02560233 $





000
SAUS44 KEWX 050752
MTRATT
METAR KATT 050751Z AUTO 17005KT 10SM BKN012 26/23 A3001 RMK AO2
SLP148 T02560233 $





000
SAUS44 KEWX 050652
MTRATT
METAR KATT 050651Z AUTO VRB04KT 10SM OVC013 26/24 A3002 RMK AO2
SLP149 T02610239 $





000
SAUS44 KEWX 050652
MTRATT
METAR KATT 050651Z AUTO VRB04KT 10SM OVC013 26/24 A3002 RMK AO2
SLP149 T02610239 $





    US Dept of Commerce
    National Oceanic and Atmospheric Administration
    National Weather Service
    1325 East West Highway
    Silver Spring, MD 20910
    Page Author: NWS Internet Services Team
Disclaimer
Information Quality
Credits
Glossary
Privacy Policy
Freedom of Information Act (FOIA)
About Us
Career Opportunities